Time;durP1;ratioP1;P1;durP2;ratioP2;P2;SDS_P1;SDS_P2;PMS_P1;PMS_P2;Temp;Humidity;BMP_temperature;BMP_pressure;BME280_temperature;BME280_humidity;BME280_pressure;Samples;Min_cycle;Max_cycle;Signal;HPM_P1;HPM_P2
2022/05/26 00:00:32;;;;;;;1.83;1.20;;;15.10;99.20;;;;;;5029772;28;20202;-73
2022/05/26 00:02:58;;;;;;;2.03;1.03;;;15.10;99.30;;;;;;5031472;28;20183;-73
2022/05/26 00:05:24;;;;;;;1.87;1.70;;;15.10;99.40;;;;;;5030905;28;20725;-73
2022/05/26 00:07:50;;;;;;;3.87;2.10;;;15.00;99.50;;;;;;5031052;28;20433;-73
2022/05/26 00:10:16;;;;;;;2.13;1.70;;;15.10;99.70;;;;;;5031426;28;20497;-73
2022/05/26 00:12:42;;;;;;;1.50;1.40;;;15.10;99.60;;;;;;5031385;28;20540;-73
2022/05/26 00:15:08;;;;;;;1.67;1.30;;;15.10;99.80;;;;;;5029972;28;20245;-73
2022/05/26 00:17:34;;;;;;;1.47;1.30;;;15.10;99.70;;;;;;5031626;28;20414;-73
2022/05/26 00:20:00;;;;;;;2.50;1.40;;;15.20;99.70;;;;;;5031394;28;20727;-73
2022/05/26 00:22:26;;;;;;;1.77;1.30;;;15.30;99.90;;;;;;5031340;28;20399;-73
2022/05/26 00:24:51;;;;;;;1.47;1.20;;;15.20;99.50;;;;;;5030963;28;20168;-73
2022/05/26 00:27:17;;;;;;;1.77;1.63;;;15.30;99.60;;;;;;5031059;28;20560;-73
2022/05/26 00:29:43;;;;;;;1.60;1.40;;;15.30;99.40;;;;;;5030650;28;20168;-73
2022/05/26 00:32:09;;;;;;;2.00;1.40;;;15.20;99.50;;;;;;5030762;28;20604;-73
2022/05/26 00:34:35;;;;;;;1.30;1.20;;;15.10;99.70;;;;;;5029156;28;20554;-73
2022/05/26 00:37:00;;;;;;;1.47;1.37;;;15.20;99.70;;;;;;5030680;28;20501;-73
2022/05/26 00:39:26;;;;;;;1.10;1.00;;;15.20;99.80;;;;;;5030691;28;20592;-73
2022/05/26 00:41:54;;;;;;;1.50;1.40;;;15.10;99.90;;;;;;5030724;28;20213;-73
2022/05/26 00:44:20;;;;;;;2.83;1.57;;;15.10;99.90;;;;;;5030524;28;20885;-73
2022/05/26 00:47:00;;;;;;;1.20;1.10;;;15.10;99.90;;;;;;5030235;28;20430;-73
2022/05/26 00:49:42;;;;;;;1.50;1.00;;;15.10;99.90;;;;;;5030792;28;20456;-73
2022/05/26 00:52:21;;;;;;;1.17;0.93;;;15.10;99.90;;;;;;5030354;28;20910;-73
2022/05/26 00:54:50;;;;;;;2.20;1.47;;;15.10;99.90;;;;;;5030305;28;20529;-73
2022/05/26 00:57:21;;;;;;;1.40;1.30;;;15.10;99.90;;;;;;5030587;28;20402;-74
2022/05/26 00:59:58;;;;;;;1.40;1.17;;;15.10;99.90;;;;;;5030498;28;20457;-73
2022/05/26 01:02:32;;;;;;;1.20;1.10;;;15.10;99.90;;;;;;5030240;28;20402;-73
2022/05/26 01:05:01;;;;;;;1.27;1.00;;;15.10;99.90;;;;;;5030666;28;20951;-73
2022/05/26 01:07:31;;;;;;;1.27;1.13;;;15.20;99.90;;;;;;5030189;28;20421;-73
2022/05/26 01:09:56;;;;;;;2.40;1.10;;;15.20;99.90;;;;;;5030284;28;20402;-73
2022/05/26 01:12:23;;;;;;;2.20;1.23;;;15.30;99.90;;;;;;5030391;28;20770;-73
2022/05/26 01:15:11;;;;;;;1.93;1.40;;;15.40;99.90;;;;;;5030138;28;20226;-73
2022/05/26 01:18:00;;;;;;;1.33;1.20;;;15.40;99.80;;;;;;5030639;28;20429;-72
2022/05/26 01:20:43;;;;;;;2.07;1.20;;;15.40;99.40;;;;;;5034171;28;20454;-72
2022/05/26 01:23:08;;;;;;;1.80;1.20;;;15.50;99.40;;;;;;5034273;28;20424;-73
2022/05/26 01:26:11;;;;;;;1.10;1.00;;;15.50;99.30;;;;;;5033918;28;20461;-73
2022/05/26 01:29:15;;;;;;;1.30;1.20;;;15.70;99.00;;;;;;5033752;28;20159;-73
2022/05/26 01:32:07;;;;;;;1.70;1.30;;;15.70;98.80;;;;;;5033641;28;20417;-72
2022/05/26 01:34:44;;;;;;;1.73;1.10;;;15.60;99.00;;;;;;5033683;28;20398;-73
2022/05/26 01:37:23;;;;;;;1.43;1.03;;;15.60;98.80;;;;;;5038732;22;20548;-68
2022/05/26 01:39:58;;;;;;;1.17;1.07;;;15.60;99.20;;;;;;5014753;28;20497;-68
2022/05/26 01:42:46;;;;;;;1.10;1.00;;;15.60;99.20;;;;;;5014813;28;20430;-68
2022/05/26 01:45:28;;;;;;;1.43;1.00;;;15.60;99.40;;;;;;5014844;28;20434;-68
2022/05/26 01:48:05;;;;;;;1.17;0.97;;;15.50;99.50;;;;;;5014802;28;20466;-68
2022/05/26 01:50:52;;;;;;;1.30;1.20;;;15.50;99.60;;;;;;5014721;28;20461;-68
2022/05/26 01:53:53;;;;;;;1.53;1.27;;;15.50;99.90;;;;;;5013563;28;20474;-68
2022/05/26 01:56:25;;;;;;;1.30;1.20;;;15.50;99.90;;;;;;5012760;28;20489;-68
2022/05/26 01:59:05;;;;;;;2.20;1.30;;;15.60;99.80;;;;;;5011477;28;20422;-68
2022/05/26 02:01:37;;;;;;;1.70;1.10;;;15.50;99.90;;;;;;5014354;28;20450;-69
2022/05/26 02:04:10;;;;;;;1.10;1.00;;;15.50;99.90;;;;;;5014257;28;20493;-68
2022/05/26 02:06:42;;;;;;;2.03;1.80;;;15.50;99.90;;;;;;5014295;28;20415;-70
2022/05/26 02:09:09;;;;;;;2.50;1.43;;;15.50;99.90;;;;;;5014537;28;20395;-68
2022/05/26 02:11:45;;;;;;;1.23;1.00;;;15.50;99.90;;;;;;5014172;28;20407;-68
2022/05/26 02:14:20;;;;;;;1.53;1.30;;;15.60;99.90;;;;;;5014372;28;20858;-68
2022/05/26 02:16:48;;;;;;;1.10;1.00;;;15.60;99.90;;;;;;5014175;28;20909;-69
2022/05/26 02:19:23;;;;;;;4.63;1.30;;;15.60;99.70;;;;;;5014776;28;20411;-69
2022/05/26 02:22:19;;;;;;;1.63;1.10;;;15.60;99.80;;;;;;5016188;28;21021;-69
2022/05/26 02:24:58;;;;;;;1.50;1.30;;;15.60;99.70;;;;;;5014397;28;20395;-69
2022/05/26 02:27:26;;;;;;;1.10;1.00;;;15.60;99.60;;;;;;5013997;28;20506;-69
2022/05/26 02:29:52;;;;;;;1.93;1.20;;;15.60;99.70;;;;;;5013759;28;20411;-69
2022/05/26 02:32:28;;;;;;;1.20;1.10;;;15.60;99.50;;;;;;5013787;28;20414;-69
2022/05/26 02:34:57;;;;;;;0.87;0.87;;;15.60;99.50;;;;;;5013893;28;20403;-69
2022/05/26 02:37:24;;;;;;;1.40;1.07;;;15.60;99.40;;;;;;5013702;28;20453;-69
2022/05/26 02:39:50;;;;;;;1.07;0.90;;;15.70;99.50;;;;;;5013850;28;20813;-69
2022/05/26 02:42:16;;;;;;;1.53;1.40;;;15.70;99.70;;;;;;5013706;28;20407;-68
2022/05/26 02:44:42;;;;;;;1.47;1.37;;;15.60;99.80;;;;;;5013593;28;20214;-69
2022/05/26 02:47:20;;;;;;;1.33;0.97;;;15.60;99.70;;;;;;5013834;28;20193;-69
2022/05/26 02:49:59;;;;;;;1.37;1.20;;;15.70;99.50;;;;;;5013704;28;20411;-69
2022/05/26 02:52:34;;;;;;;1.20;1.10;;;15.70;99.40;;;;;;5013558;28;20495;-69
2022/05/26 02:55:29;;;;;;;1.47;1.00;;;15.70;99.50;;;;;;5013290;28;20411;-68
2022/05/26 02:58:30;;;;;;;1.83;1.23;;;15.70;99.30;;;;;;5013525;28;20419;-69
2022/05/26 03:01:05;;;;;;;1.17;0.90;;;15.70;99.60;;;;;;5013169;28;20501;-69
2022/05/26 03:03:46;;;;;;;1.13;1.03;;;15.70;99.70;;;;;;5013458;28;20584;-69
2022/05/26 03:06:31;;;;;;;1.20;1.03;;;15.80;99.80;;;;;;5013120;28;20441;-69
2022/05/26 03:09:00;;;;;;;1.30;0.70;;;15.80;99.80;;;;;;5013409;28;20959;-69
2022/05/26 03:11:28;;;;;;;1.10;1.00;;;15.80;99.90;;;;;;5013367;28;20434;-69
2022/05/26 03:13:54;;;;;;;0.80;0.80;;;15.80;99.70;;;;;;5013079;28;20419;-69
2022/05/26 03:16:20;;;;;;;0.97;0.97;;;15.80;99.90;;;;;;5012785;28;20427;-68
2022/05/26 03:18:46;;;;;;;1.03;0.77;;;15.80;99.90;;;;;;5013284;28;20455;-69
2022/05/26 03:21:13;;;;;;;3.50;0.90;;;15.80;99.90;;;;;;5013556;28;20451;-69
2022/05/26 03:23:39;;;;;;;0.80;0.80;;;15.90;99.90;;;;;;5013667;28;20952;-69
2022/05/26 03:26:06;;;;;;;1.30;1.00;;;15.90;99.90;;;;;;5014166;28;20434;-69
2022/05/26 03:28:32;;;;;;;1.67;1.07;;;15.90;99.90;;;;;;5014349;28;20487;-69
2022/05/26 03:30:58;;;;;;;1.53;1.10;;;15.90;99.90;;;;;;5014068;28;20832;-69
2022/05/26 03:33:24;;;;;;;2.60;1.00;;;15.90;99.90;;;;;;5014483;28;20178;-69
2022/05/26 03:41:25;;;;;;;1.20;0.97;;;16.00;99.90;;;;;;5012470;28;20489;-69
2022/05/26 03:43:56;;;;;;;0.90;0.80;;;16.00;99.90;;;;;;5013067;28;20410;-69
2022/05/26 03:46:23;;;;;;;1.10;1.00;;;16.00;99.90;;;;;;5012982;28;20427;-69
2022/05/26 03:48:48;;;;;;;1.17;1.07;;;16.10;99.90;;;;;;5013356;28;20403;-69
2022/05/26 03:51:14;;;;;;;1.10;1.00;;;16.10;99.90;;;;;;5012466;28;20442;-69
2022/05/26 03:53:39;;;;;;;0.90;0.90;;;16.10;99.90;;;;;;5012697;28;20649;-69
2022/05/26 03:56:05;;;;;;;1.23;1.00;;;16.10;99.90;;;;;;5011364;28;20192;-69
2022/05/26 03:58:31;;;;;;;1.10;1.00;;;16.10;99.90;;;;;;5011279;28;20239;-69
2022/05/26 04:01:05;;;;;;;0.90;0.90;;;16.10;99.90;;;;;;5012306;28;20451;-68
2022/05/26 04:03:30;;;;;;;0.80;0.80;;;16.20;99.90;;;;;;5012393;28;20826;-69
2022/05/26 04:05:55;;;;;;;2.20;1.00;;;16.20;99.90;;;;;;5013130;28;20517;-69
2022/05/26 04:08:22;;;;;;;1.00;0.90;;;16.30;99.90;;;;;;5015310;28;20609;-69
2022/05/26 04:10:47;;;;;;;1.10;0.90;;;16.20;99.90;;;;;;5015983;28;20161;-69
2022/05/26 04:13:13;;;;;;;0.93;0.80;;;16.10;99.90;;;;;;5015537;28;20487;-69
2022/05/26 04:15:38;;;;;;;1.50;1.10;;;16.20;99.90;;;;;;5012068;28;20667;-69
2022/05/26 04:18:04;;;;;;;0.97;0.90;;;16.20;99.90;;;;;;5012190;28;20540;-68
2022/05/26 04:20:29;;;;;;;1.10;1.00;;;16.30;99.90;;;;;;5012094;28;20196;-68
2022/05/26 04:22:55;;;;;;;1.83;1.00;;;16.40;99.90;;;;;;5012356;28;20165;-68
2022/05/26 04:25:22;;;;;;;0.87;0.87;;;16.40;99.90;;;;;;5011633;28;20176;-68
2022/05/26 04:27:48;;;;;;;0.90;0.90;;;16.60;99.90;;;;;;5012221;28;20174;-68
2022/05/26 04:30:14;;;;;;;0.93;0.90;;;16.40;99.90;;;;;;5011813;28;20941;-68
2022/05/26 04:32:40;;;;;;;2.53;1.30;;;16.70;99.90;;;;;;5011880;28;20405;-68
2022/05/26 04:35:07;;;;;;;1.00;0.90;;;16.60;99.90;;;;;;5012117;28;20710;-68
2022/05/26 04:37:33;;;;;;;1.10;1.00;;;16.70;99.90;;;;;;5011859;28;20238;-68
2022/05/26 04:39:58;;;;;;;1.10;1.00;;;16.80;99.90;;;;;;5011714;28;20961;-68
2022/05/26 04:42:25;;;;;;;1.50;1.20;;;16.80;99.90;;;;;;5011938;28;20172;-69
2022/05/26 04:44:51;;;;;;;1.20;1.10;;;16.80;99.90;;;;;;5011490;28;20165;-68
2022/05/26 04:47:20;;;;;;;1.17;1.07;;;16.60;99.90;;;;;;5011833;28;20439;-68
2022/05/26 04:49:46;;;;;;;4.37;1.37;;;16.60;99.90;;;;;;5010391;28;20422;-68
2022/05/26 04:52:17;;;;;;;1.37;1.27;;;16.70;99.90;;;;;;5010802;28;20412;-69
2022/05/26 04:54:44;;;;;;;1.77;1.40;;;16.90;99.90;;;;;;5015367;28;20169;-68
2022/05/26 04:57:11;;;;;;;1.07;1.00;;;16.80;99.90;;;;;;5015477;28;20435;-68
2022/05/26 04:59:37;;;;;;;1.20;1.10;;;16.70;99.90;;;;;;5015452;28;20579;-69
2022/05/26 05:02:04;;;;;;;1.10;1.00;;;17.00;99.90;;;;;;5015263;28;20404;-69
2022/05/26 05:04:30;;;;;;;2.23;1.67;;;17.20;99.90;;;;;;5015047;28;20802;-69
2022/05/26 05:06:56;;;;;;;1.47;1.30;;;17.40;99.90;;;;;;5015432;28;20521;-69
2022/05/26 05:09:21;;;;;;;1.20;1.10;;;17.10;99.90;;;;;;5015472;28;20444;-69
2022/05/26 05:11:47;;;;;;;1.33;1.23;;;17.10;99.90;;;;;;5015242;28;20437;-69
2022/05/26 05:14:13;;;;;;;1.60;1.50;;;17.40;99.90;;;;;;5015110;28;20192;-69
2022/05/26 05:16:42;;;;;;;1.20;1.10;;;17.20;99.90;;;;;;5014693;28;20216;-69
2022/05/26 05:19:09;;;;;;;1.50;1.33;;;17.20;99.90;;;;;;5016101;28;20623;-69
2022/05/26 05:21:59;;;;;;;2.83;1.77;;;17.20;99.90;;;;;;5015574;28;20461;-69
2022/05/26 05:24:32;;;;;;;1.67;1.03;;;17.30;99.90;;;;;;5015505;28;20412;-69
2022/05/26 05:27:10;;;;;;;2.90;1.37;;;17.50;99.90;;;;;;5015122;28;20509;-69
2022/05/26 05:29:38;;;;;;;2.50;1.13;;;18.00;99.90;;;;;;5014997;28;20886;-69
2022/05/26 05:32:15;;;;;;;1.60;1.50;;;18.50;99.90;;;;;;5014959;28;20499;-69
2022/05/26 05:34:48;;;;;;;1.70;1.40;;;18.60;99.90;;;;;;5014772;28;20411;-67
2022/05/26 05:37:14;;;;;;;1.10;1.00;;;19.60;99.90;;;;;;5014520;28;20521;-67
2022/05/26 05:39:40;;;;;;;1.10;1.00;;;19.00;99.90;;;;;;5014284;28;20974;-69
2022/05/26 05:42:06;;;;;;;1.03;0.93;;;19.70;99.90;;;;;;5014314;28;20654;-68
2022/05/26 05:44:32;;;;;;;1.23;1.00;;;20.70;99.30;;;;;;5014417;28;20174;-68
2022/05/26 05:46:57;;;;;;;1.47;0.90;;;19.50;99.70;;;;;;5014453;28;20442;-68
2022/05/26 05:49:28;;;;;;;1.73;1.33;;;19.50;99.90;;;;;;5014485;28;20180;-68
2022/05/26 05:51:55;;;;;;;1.97;1.30;;;19.50;99.90;;;;;;5014684;28;20639;-68
2022/05/26 05:54:21;;;;;;;1.40;1.30;;;19.50;99.90;;;;;;5014421;28;20853;-68
2022/05/26 05:56:47;;;;;;;1.63;1.07;;;18.70;99.90;;;;;;5018087;28;20463;-69
2022/05/26 05:59:14;;;;;;;1.60;1.07;;;19.30;99.90;;;;;;5015881;28;20426;-68
2022/05/26 06:01:39;;;;;;;1.20;1.10;;;19.40;99.90;;;;;;5014109;28;20456;-68
2022/05/26 06:04:05;;;;;;;2.50;1.13;;;19.70;99.90;;;;;;5013906;28;20419;-68
2022/05/26 06:06:40;;;;;;;1.60;1.50;;;18.90;99.90;;;;;;5013972;28;20199;-68
2022/05/26 06:09:07;;;;;;;1.10;1.00;;;18.40;99.90;;;;;;5014045;28;20408;-68
2022/05/26 06:11:33;;;;;;;1.30;1.20;;;18.00;99.90;;;;;;5014022;28;20416;-68
2022/05/26 06:13:59;;;;;;;1.57;1.20;;;18.20;99.90;;;;;;5014139;28;20412;-68
2022/05/26 06:16:25;;;;;;;1.50;1.40;;;18.20;99.90;;;;;;5013761;28;20428;-68
2022/05/26 06:18:50;;;;;;;4.50;1.33;;;18.20;99.90;;;;;;5012615;28;20442;-68
2022/05/26 06:21:16;;;;;;;2.13;1.30;;;18.50;99.90;;;;;;5013610;28;20209;-68
2022/05/26 06:23:42;;;;;;;2.33;1.87;;;17.80;99.90;;;;;;5013561;28;20582;-68
2022/05/26 06:26:07;;;;;;;1.80;1.50;;;17.60;99.90;;;;;;5013178;28;20428;-68
2022/05/26 06:31:20;;;;;;;2.03;1.40;;;17.80;99.90;;;;;;5013668;28;20220;-68
2022/05/26 06:39:14;;;;;;;2.77;1.70;;;17.60;99.90;;;;;;5013714;28;20499;-68
2022/05/26 06:44:23;;;;;;;3.07;1.70;;;17.60;99.90;;;;;;5013494;28;20282;-68
2022/05/26 06:46:49;;;;;;;3.00;2.03;;;17.70;99.90;;;;;;5013582;28;20426;-68
2022/05/26 06:49:14;;;;;;;1.80;1.70;;;17.80;99.90;;;;;;5013288;28;20170;-68
2022/05/26 06:51:43;;;;;;;4.00;1.97;;;17.80;99.90;;;;;;5013342;28;20180;-68
2022/05/26 06:54:08;;;;;;;1.30;1.20;;;17.80;99.90;;;;;;5013313;28;20177;-68
2022/05/26 06:56:34;;;;;;;2.07;1.87;;;18.00;99.90;;;;;;5013403;28;20852;-69
2022/05/26 06:59:00;;;;;;;2.07;1.93;;;17.80;99.90;;;;;;5013200;28;20298;-68
2022/05/26 07:01:26;;;;;;;2.33;2.13;;;17.40;99.90;;;;;;5013127;28;20662;-68
2022/05/26 07:03:51;;;;;;;2.83;2.10;;;17.50;99.90;;;;;;5013522;28;20174;-68
2022/05/26 07:06:20;;;;;;;2.33;2.23;;;17.40;99.90;;;;;;5012720;28;20206;-70
2022/05/26 07:08:46;;;;;;;2.60;2.40;;;17.10;99.90;;;;;;5013295;28;20210;-68
2022/05/26 07:11:12;;;;;;;3.17;2.30;;;17.10;99.90;;;;;;5013246;28;20898;-68
2022/05/26 07:13:38;;;;;;;2.60;2.40;;;16.60;99.90;;;;;;5012947;28;20583;-68
2022/05/26 07:16:05;;;;;;;2.40;2.20;;;16.60;99.90;;;;;;5011875;28;20193;-68
2022/05/26 07:18:30;;;;;;;2.53;2.33;;;16.40;99.90;;;;;;5012774;28;20419;-70
2022/05/26 07:20:56;;;;;;;4.50;2.60;;;16.20;99.90;;;;;;5013332;28;20796;-69
2022/05/26 07:23:22;;;;;;;3.43;3.13;;;15.90;99.90;;;;;;5013190;28;20223;-68
2022/05/26 07:25:47;;;;;;;2.93;2.73;;;15.50;99.90;;;;;;5012922;28;20201;-68
2022/05/26 07:28:12;;;;;;;4.00;3.70;;;15.50;99.90;;;;;;5012993;28;20199;-68
2022/05/26 07:30:39;;;;;;;3.03;2.40;;;15.40;99.90;;;;;;5012821;28;20180;-69
2022/05/26 07:33:05;;;;;;;3.80;3.50;;;15.20;99.90;;;;;;5013163;28;20624;-68
2022/05/26 07:35:30;;;;;;;3.33;3.00;;;15.20;99.90;;;;;;5012353;28;20465;-68
2022/05/26 07:43:27;;;;;;;3.83;3.53;;;14.80;99.90;;;;;;5032018;28;20397;-67
2022/05/26 07:45:52;;;;;;;3.57;3.33;;;14.90;99.90;;;;;;5031591;28;20501;-67
2022/05/26 07:48:18;;;;;;;4.30;3.43;;;15.10;99.90;;;;;;5031774;28;20565;-67
2022/05/26 07:50:43;;;;;;;3.63;3.33;;;15.10;99.90;;;;;;5032318;28;20167;-68
2022/05/26 07:53:09;;;;;;;3.93;3.37;;;15.00;99.90;;;;;;5031491;28;20175;-67
2022/05/26 07:55:35;;;;;;;4.47;3.20;;;15.30;99.90;;;;;;5030035;28;20172;-67
2022/05/26 07:58:00;;;;;;;4.40;3.83;;;15.50;99.90;;;;;;5031785;28;20566;-67
2022/05/26 08:00:26;;;;;;;4.50;4.10;;;15.70;99.90;;;;;;5031601;28;20462;-67
2022/05/26 08:02:51;;;;;;;4.03;3.70;;;15.60;99.90;;;;;;5031625;28;20223;-66
2022/05/26 08:05:17;;;;;;;4.43;3.47;;;15.70;99.90;;;;;;5031704;28;20174;-67
2022/05/26 08:07:43;;;;;;;4.43;4.03;;;15.70;99.90;;;;;;5031771;28;20184;-67
2022/05/26 08:10:10;;;;;;;3.87;3.13;;;16.00;99.90;;;;;;5031665;28;20263;-67
2022/05/26 08:12:36;;;;;;;3.50;3.20;;;16.10;99.90;;;;;;5031470;28;20416;-67
2022/05/26 08:15:02;;;;;;;2.90;2.67;;;16.10;99.90;;;;;;5031244;28;20469;-66
2022/05/26 08:17:28;;;;;;;3.47;2.00;;;16.40;99.90;;;;;;5031375;28;20568;-68
2022/05/26 08:19:53;;;;;;;3.20;2.30;;;16.70;99.90;;;;;;5031149;28;20454;-66
2022/05/26 08:22:19;;;;;;;2.50;2.30;;;17.10;99.90;;;;;;5030979;28;20183;-67
2022/05/26 08:24:59;;;;;;;2.67;2.47;;;17.90;99.90;;;;;;5030994;28;20170;-66
2022/05/26 08:27:25;;;;;;;2.17;1.60;;;18.30;99.90;;;;;;5030896;28;20421;-66
2022/05/26 08:29:54;;;;;;;1.70;1.53;;;18.40;99.90;;;;;;5031260;28;20416;-66
2022/05/26 08:32:20;;;;;;;1.40;1.30;;;19.00;99.90;;;;;;5031136;28;20505;-66
2022/05/26 08:34:46;;;;;;;1.30;1.20;;;19.20;99.90;;;;;;5030695;28;20440;-66
2022/05/26 08:37:16;;;;;;;1.63;1.53;;;19.00;99.90;;;;;;5031118;28;20456;-67
2022/05/26 08:39:42;;;;;;;1.20;1.10;;;19.50;99.90;;;;;;5031135;28;20220;-66
2022/05/26 08:42:16;;;;;;;1.40;1.30;;;20.10;99.90;;;;;;5031561;28;20464;-67
2022/05/26 08:44:42;;;;;;;5.83;1.20;;;19.50;99.90;;;;;;5031427;28;20181;-66
2022/05/26 08:47:14;;;;;;;1.10;1.00;;;20.50;99.90;;;;;;5031043;28;20428;-66
2022/05/26 08:49:48;;;;;;;3.30;1.00;;;21.10;99.90;;;;;;5031082;28;20969;-67
2022/05/26 08:52:16;;;;;;;1.13;1.03;;;21.00;99.90;;;;;;5031185;28;20423;-67
2022/05/26 08:54:58;;;;;;;1.03;0.70;;;21.50;99.90;;;;;;5031389;28;20416;-67
2022/05/26 08:57:31;;;;;;;0.80;0.77;;;20.30;99.90;;;;;;5031189;28;20436;-67
2022/05/26 08:59:57;;;;;;;0.90;0.90;;;21.10;99.90;;;;;;5031318;28;20870;-66
2022/05/26 09:02:26;;;;;;;1.00;0.90;;;20.70;99.90;;;;;;5031316;28;20499;-67
2022/05/26 09:04:55;;;;;;;1.00;0.90;;;19.90;99.90;;;;;;5031873;28;20171;-67
2022/05/26 09:13:12;;;;;;;1.20;1.00;;;20.50;99.90;;;;;;5031869;28;20454;-67
2022/05/26 09:15:38;;;;;;;2.57;1.00;;;21.10;99.90;;;;;;5030565;28;20418;-67
2022/05/26 09:18:30;;;;;;;0.73;0.70;;;20.50;99.90;;;;;;5030780;28;20927;-67
2022/05/26 09:21:13;;;;;;;1.10;0.73;;;21.10;99.90;;;;;;5027255;28;20507;-67
2022/05/26 09:23:42;;;;;;;0.73;0.70;;;20.80;99.90;;;;;;5030690;28;20419;-67
2022/05/26 09:26:11;;;;;;;2.20;1.33;;;21.40;99.90;;;;;;5030415;28;20439;-67
2022/05/26 09:28:49;;;;;;;1.07;0.97;;;21.10;99.90;;;;;;5030815;28;20398;-67
2022/05/26 09:31:22;;;;;;;1.00;0.90;;;20.80;99.90;;;;;;5030772;28;20405;-66
2022/05/26 09:34:17;;;;;;;1.03;0.70;;;20.90;99.90;;;;;;5030764;28;20503;-66
2022/05/26 09:36:47;;;;;;;2.53;0.80;;;20.70;99.90;;;;;;5030373;28;20771;-66
2022/05/26 09:39:17;;;;;;;0.83;0.80;;;20.70;99.90;;;;;;5030997;28;20412;-67
2022/05/26 09:41:46;;;;;;;0.90;0.80;;;20.00;99.90;;;;;;5034102;28;20458;-66
2022/05/26 09:44:34;;;;;;;1.27;0.90;;;20.10;99.90;;;;;;5034107;28;20410;-66
2022/05/26 09:47:04;;;;;;;1.27;1.00;;;19.90;99.90;;;;;;5033998;28;20785;-66
2022/05/26 09:49:37;;;;;;;2.23;0.80;;;18.70;99.90;;;;;;5033974;28;20412;-67
2022/05/26 09:52:16;;;;;;;1.30;1.20;;;18.90;99.90;;;;;;5034108;28;20499;-66
2022/05/26 09:54:42;;;;;;;1.70;1.33;;;18.90;99.90;;;;;;5033962;28;20414;-66
2022/05/26 09:57:17;;;;;;;1.20;1.10;;;19.20;99.90;;;;;;5033943;28;20510;-67
2022/05/26 09:59:44;;;;;;;1.20;1.03;;;19.90;99.90;;;;;;5033893;28;20286;-66
2022/05/26 10:02:18;;;;;;;1.20;1.10;;;20.80;99.90;;;;;;5033643;28;20811;-66
2022/05/26 10:04:57;;;;;;;2.70;1.10;;;21.30;99.90;;;;;;5033558;28;20412;-67
2022/05/26 10:07:49;;;;;;;2.90;2.17;;;21.00;99.90;;;;;;5033896;28;20796;-66
2022/05/26 10:10:37;;;;;;;1.23;0.90;;;19.90;99.90;;;;;;5034005;28;20414;-66
2022/05/26 10:13:42;;;;;;;1.87;0.90;;;19.60;99.90;;;;;;5033535;28;20415;-66
2022/05/26 10:16:22;;;;;;;1.20;1.10;;;19.40;99.90;;;;;;4992671;28;20417;-66
2022/05/26 10:19:09;;;;;;;1.23;1.13;;;19.20;99.90;;;;;;5033423;28;20875;-66
2022/05/26 10:22:00;;;;;;;2.40;1.10;;;18.90;99.90;;;;;;5033513;28;21027;-67
2022/05/26 10:24:52;;;;;;;1.33;0.93;;;19.00;99.90;;;;;;5033498;28;20414;-67
2022/05/26 10:27:30;;;;;;;1.33;1.07;;;18.80;99.90;;;;;;5033414;28;20927;-67
2022/05/26 10:30:06;;;;;;;1.30;1.10;;;18.50;99.90;;;;;;5033734;28;20920;-66
2022/05/26 10:33:08;;;;;;;1.13;1.03;;;18.50;99.90;;;;;;5033075;28;20418;-68
2022/05/26 10:36:13;;;;;;;1.33;1.23;;;18.50;99.90;;;;;;5033169;28;20399;-67
2022/05/26 10:38:57;;;;;;;1.40;1.30;;;18.80;99.90;;;;;;5033197;28;20938;-67
2022/05/26 10:41:39;;;;;;;2.00;1.10;;;19.00;99.90;;;;;;5033105;28;20485;-68
2022/05/26 10:44:28;;;;;;;2.50;1.47;;;19.20;99.90;;;;;;5033626;28;20430;-67
2022/05/26 10:47:05;;;;;;;1.40;1.30;;;18.80;99.90;;;;;;5032717;28;20582;-67
2022/05/26 10:49:52;;;;;;;3.70;1.97;;;18.70;99.90;;;;;;5033551;28;20544;-66
2022/05/26 10:52:25;;;;;;;1.50;1.17;;;18.90;99.90;;;;;;5032591;28;20932;-66
2022/05/26 10:55:08;;;;;;;1.47;1.27;;;19.50;99.90;;;;;;5032594;28;20403;-67
2022/05/26 10:57:42;;;;;;;1.50;1.20;;;19.60;99.90;;;;;;5032890;28;20410;-66
2022/05/26 11:00:16;;;;;;;2.03;1.00;;;19.60;99.90;;;;;;5032615;28;20547;-66
2022/05/26 11:02:59;;;;;;;4.70;1.50;;;19.70;99.90;;;;;;5031466;28;20831;-66
2022/05/26 11:05:36;;;;;;;1.70;1.40;;;20.10;99.90;;;;;;5032543;28;20403;-66
2022/05/26 11:08:24;;;;;;;1.80;1.70;;;20.10;99.90;;;;;;5032540;28;20426;-65
2022/05/26 11:10:55;;;;;;;1.30;1.00;;;19.80;99.90;;;;;;5032447;28;20404;-66
2022/05/26 11:13:54;;;;;;;2.33;1.60;;;20.10;99.90;;;;;;5032378;28;21217;-66
2022/05/26 11:19:43;;;;;;;2.13;1.70;;;20.60;99.90;;;;;;5032415;28;20402;-66
2022/05/26 11:22:11;;;;;;;1.77;1.53;;;21.20;99.90;;;;;;5031923;28;20758;-65
2022/05/26 11:24:37;;;;;;;1.30;1.20;;;20.70;99.90;;;;;;5031835;28;20488;-65
2022/05/26 11:27:15;;;;;;;1.73;1.63;;;20.80;99.90;;;;;;5031608;28;20428;-66
2022/05/26 11:29:46;;;;;;;2.70;1.70;;;21.00;99.90;;;;;;5031501;28;20879;-66
2022/05/26 11:38:18;;;;;;;1.30;1.20;;;21.40;99.90;;;;;;5031488;28;20531;-66
2022/05/26 11:41:02;;;;;;;2.77;1.40;;;21.20;99.90;;;;;;5031476;28;20456;-65
2022/05/26 11:43:41;;;;;;;2.17;1.27;;;21.00;99.90;;;;;;5031392;28;20828;-66
2022/05/26 11:46:09;;;;;;;1.20;1.10;;;21.00;99.90;;;;;;5031177;28;20839;-66
2022/05/26 11:48:42;;;;;;;1.37;1.10;;;20.30;99.90;;;;;;5031367;28;20417;-65
2022/05/26 11:51:29;;;;;;;2.07;1.30;;;20.40;99.90;;;;;;5031540;28;20407;-65
2022/05/26 11:53:55;;;;;;;2.00;1.17;;;20.00;99.90;;;;;;5031352;28;20435;-66
2022/05/26 11:56:28;;;;;;;1.73;1.30;;;20.00;99.90;;;;;;5031273;28;20414;-66
2022/05/26 11:59:23;;;;;;;1.63;1.20;;;19.70;99.90;;;;;;5031124;28;20411;-66
2022/05/26 12:02:07;;;;;;;1.10;1.00;;;19.80;99.90;;;;;;5030854;28;20465;-66
2022/05/26 12:04:37;;;;;;;3.80;1.10;;;20.00;99.90;;;;;;5031166;28;20506;-67
2022/05/26 12:07:34;;;;;;;1.77;1.67;;;20.50;99.90;;;;;;5031222;28;20743;-67
2022/05/26 12:10:01;;;;;;;2.50;1.20;;;20.50;99.90;;;;;;5024787;28;20485;-66
2022/05/26 12:12:26;;;;;;;1.70;1.43;;;20.60;99.90;;;;;;5031208;28;20781;-66
2022/05/26 12:14:55;;;;;;;1.23;1.13;;;20.50;99.90;;;;;;5030902;28;20547;-66
2022/05/26 12:17:41;;;;;;;1.50;1.20;;;20.50;99.90;;;;;;5031199;28;20610;-66
2022/05/26 12:20:09;;;;;;;1.77;1.27;;;21.00;99.90;;;;;;5030969;28;20505;-66
2022/05/26 12:22:59;;;;;;;1.23;1.13;;;21.00;99.90;;;;;;5030739;28;20470;-66
2022/05/26 12:25:30;;;;;;;2.27;1.00;;;21.20;99.90;;;;;;5030367;28;20457;-68
2022/05/26 12:28:11;;;;;;;2.87;1.20;;;20.80;98.80;;;;;;5030816;28;20517;-66
2022/05/26 12:30:39;;;;;;;1.10;1.00;;;20.80;99.50;;;;;;5031019;28;20508;-66
2022/05/26 12:33:17;;;;;;;1.10;1.00;;;20.70;99.30;;;;;;5030842;28;20651;-67
2022/05/26 12:36:14;;;;;;;1.10;1.00;;;21.00;99.30;;;;;;5030831;28;20417;-67
2022/05/26 12:39:05;;;;;;;1.77;1.27;;;21.50;98.80;;;;;;5030752;28;20476;-65
2022/05/26 12:41:44;;;;;;;0.90;0.90;;;21.70;97.90;;;;;;5031018;28;20796;-66
2022/05/26 12:44:22;;;;;;;1.20;1.10;;;22.00;95.90;;;;;;5030791;28;20800;-66
2022/05/26 12:47:12;;;;;;;1.47;1.37;;;21.10;95.60;;;;;;5030332;28;20423;-66
2022/05/26 12:49:54;;;;;;;2.10;1.90;;;21.80;95.90;;;;;;5030708;28;20399;-66
2022/05/26 12:52:42;;;;;;;1.50;1.40;;;21.50;95.00;;;;;;5030824;28;20413;-66
2022/05/26 12:55:19;;;;;;;1.50;1.20;;;20.90;96.40;;;;;;5030532;28;20421;-66
2022/05/26 12:58:14;;;;;;;2.20;1.43;;;21.10;96.90;;;;;;5030445;28;20458;-66
2022/05/26 13:00:49;;;;;;;1.10;1.00;;;21.70;96.70;;;;;;5020327;28;20469;-66
2022/05/26 13:03:30;;;;;;;1.87;1.20;;;21.50;95.80;;;;;;5030916;28;20499;-67
2022/05/26 13:05:59;;;;;;;1.70;1.40;;;20.90;96.90;;;;;;5030666;28;20458;-66
2022/05/26 13:08:29;;;;;;;1.87;1.40;;;21.00;97.60;;;;;;5030492;28;20434;-66
2022/05/26 13:10:57;;;;;;;1.53;1.30;;;21.00;97.90;;;;;;5030307;28;20504;-66
2022/05/26 13:13:44;;;;;;;2.03;1.30;;;20.60;97.50;;;;;;5030552;28;20412;-66
2022/05/26 13:16:33;;;;;;;2.17;1.80;;;20.50;97.70;;;;;;5033987;28;20881;-67
2022/05/26 13:19:12;;;;;;;3.10;1.30;;;20.00;97.20;;;;;;5034233;28;20434;-67
2022/05/26 13:21:39;;;;;;;2.47;1.70;;;20.00;97.10;;;;;;5034415;28;20454;-66
2022/05/26 13:24:21;;;;;;;1.13;1.00;;;20.20;97.00;;;;;;5034169;28;20414;-66
2022/05/26 13:26:49;;;;;;;3.00;1.23;;;20.30;96.30;;;;;;5033963;28;20925;-66
2022/05/26 13:29:18;;;;;;;2.70;1.27;;;20.80;96.10;;;;;;5034126;28;20496;-66
2022/05/26 13:34:30;;;;;;;1.63;1.10;;;21.10;96.00;;;;;;5034106;28;20457;-66
2022/05/26 13:36:56;;;;;;;1.40;1.30;;;20.80;94.90;;;;;;5052966;23;21058;-68
2022/05/26 13:39:25;;;;;;;4.93;1.43;;;20.80;95.30;;;;;;5017331;28;20418;-68
2022/05/26 13:41:53;;;;;;;1.30;1.20;;;21.00;95.10;;;;;;5016534;28;20201;-68
2022/05/26 13:44:30;;;;;;;3.77;0.90;;;21.30;94.90;;;;;;5016365;28;20463;-68
2022/05/26 13:46:57;;;;;;;0.87;0.87;;;21.20;93.60;;;;;;5018003;28;20421;-68
2022/05/26 13:49:32;;;;;;;1.63;1.53;;;20.70;92.50;;;;;;5018619;28;20404;-69
2022/05/26 13:52:08;;;;;;;0.80;0.80;;;20.70;93.20;;;;;;5018685;28;20416;-69
2022/05/26 13:54:44;;;;;;;3.17;1.20;;;21.30;92.80;;;;;;5018186;28;20412;-68